Yankeetown, FL (34498)

8:30 AM EST on November 23, 2014 (GMT -0500)
Pine Ridge | Change Station
CLOSE
Current Station
Personal Weather Station
Location: Beverly Hills, FL
Elevation: 115 ft
Nearby Weather Stations

Elev 115 ft 28.95 °N, 82.53 °W | Updated 10 minutes ago

Overcast
Overcast
73.0 °F
Feels Like 73.0 °F
N
3.2
Wind Variable Wind from West

Today
High -- | Low -- °F
--% Chance of Precip.
Yesterday
High -- | Low -- °F
Precip. -- in
7:00 AM 5:33 PM
New Moon, 1% visible
Pressure 29.97 in
Visibility 10.0 miles
Clouds Overcast 1200 ft
Dew Point 72 °F
Humidity 95%
Rainfall 0.00 in
Snow Depth Not available.
UV 0 out of 12
Pollen .60 out of 12
Air Quality Not available.
Flu Activity Not available.
METAR KCGC 231315Z AUTO 15009KT 10SM OVC012 23/20 A2997 RMK AO2

More Conditions Fewer Conditions

Pressure 29.97 in
Visibility 10.0 miles
Clouds Overcast 1200 ft
Dew Point 72 °F
Humidity 95%
Rainfall 0.00 in
Snow Depth Not available.
UV 0 out of 12
Pollen .60 out of 12
Air Quality Not available.
Flu Activity Not available.
METAR KCGC 231315Z AUTO 15009KT 10SM OVC012 23/20 A2997 RMK AO2

More Conditions Fewer Conditions

10-Day Weather Forecast

Almanac

Astronomy

Nov. 23, 2014 Rise Set
Actual Time
Civil Twilight
Nautical Twilight
Astronomical Twilight
Moon
Length of Visible Light
Length of Day
Tomorrow will be .
, % of the Moon is Illuminated

Today's Extremes

State Highs State Lows

Community

WunderPhotos

Upload Photos

1,773,057 photos uploaded!

WunderBlogs® & News

Nearby

Air Quality

  Air Quality AQ Index Pollutant
Not available.

Snow Depth

Station Depth Elevation

Earthquake Activity

City Distance Mag. Time & Date
Minimum magnitude displayed is 2.5.

Coastal Water Temperatures

Place Temperature

Nearby Weather Stations